createdAt,value
2023-04-10T00:01:17.562Z,3.20
2023-04-10T00:03:44.872Z,2.70
2023-04-10T00:06:12.025Z,3.15
2023-04-10T00:08:39.085Z,2.90
2023-04-10T00:11:06.284Z,3.25
2023-04-10T00:13:33.270Z,3.05
2023-04-10T00:16:00.527Z,2.90
2023-04-10T00:18:27.646Z,3.20
2023-04-10T00:20:55.163Z,3.33
2023-04-10T00:23:22.116Z,3.13
2023-04-10T00:25:49.245Z,2.92
2023-04-10T00:28:17.308Z,3.08
2023-04-10T00:30:44.331Z,2.90
2023-04-10T00:33:11.491Z,3.08
2023-04-10T00:35:38.590Z,3.17
2023-04-10T00:38:05.744Z,3.13
2023-04-10T00:40:32.909Z,3.10
2023-04-10T00:43:00.620Z,3.22
2023-04-10T00:45:28.097Z,2.63
2023-04-10T00:47:56.035Z,2.78
2023-04-10T00:50:23.738Z,3.33
2023-04-10T00:52:51.693Z,2.85
2023-04-10T00:55:19.074Z,2.97
2023-04-10T00:57:47.234Z,3.47
2023-04-10T01:00:16.010Z,3.30
2023-04-10T01:02:43.492Z,3.17
2023-04-10T01:05:13.086Z,2.83
2023-04-10T01:08:18.661Z,3.30
2023-04-10T01:11:19.433Z,3.28
2023-04-10T01:13:57.709Z,2.60
2023-04-10T01:16:36.559Z,3.35
2023-04-10T01:19:22.921Z,3.58
2023-04-10T01:21:53.718Z,2.95
2023-04-10T01:24:29.521Z,3.15
2023-04-10T01:27:37.262Z,2.80
2023-04-10T01:30:06.878Z,3.10
2023-04-10T01:32:37.204Z,2.63
2023-04-10T01:35:08.107Z,3.08
2023-04-10T01:37:39.141Z,2.70
2023-04-10T01:40:11.632Z,3.20
2023-04-10T01:42:51.735Z,2.90
2023-04-10T01:45:23.816Z,3.22
2023-04-10T01:47:53.079Z,3.10
2023-04-10T01:50:25.051Z,2.88
2023-04-10T01:52:56.946Z,2.70
2023-04-10T01:55:27.771Z,2.90
2023-04-10T02:00:29.521Z,2.90
2023-04-10T02:02:58.743Z,2.97
2023-04-10T02:05:36.650Z,3.20
2023-04-10T02:08:16.529Z,3.38
2023-04-10T02:11:04.467Z,3.28
2023-04-10T02:13:36.270Z,3.30
2023-04-10T02:16:08.527Z,3.58
2023-04-10T02:18:37.420Z,3.38
2023-04-10T02:21:06.263Z,3.38
2023-04-10T02:23:33.933Z,3.13
2023-04-10T02:26:07.954Z,4.28
2023-04-10T02:28:38.085Z,3.83
2023-04-10T02:31:07.734Z,3.83
2023-04-10T02:33:34.890Z,3.78
2023-04-10T02:36:02.261Z,3.20
2023-04-10T02:38:29.289Z,4.07
2023-04-10T02:40:56.361Z,3.47
2023-04-10T02:43:23.484Z,3.40
2023-04-10T02:45:51.314Z,3.92
2023-04-10T02:48:25.820Z,3.75
2023-04-10T02:50:59.914Z,3.90
2023-04-10T02:53:29.171Z,4.13
2023-04-10T02:55:59.284Z,3.58
2023-04-10T02:58:30.551Z,4.05
2023-04-10T03:00:58.909Z,4.00
2023-04-10T03:03:40.106Z,3.67
2023-04-10T03:06:09.644Z,3.88
2023-04-10T03:08:37.842Z,4.00
2023-04-10T03:11:06.533Z,4.70
2023-04-10T03:13:33.576Z,4.63
2023-04-10T03:16:01.121Z,4.63
2023-04-10T03:18:28.224Z,4.75
2023-04-10T03:20:56.414Z,5.05
2023-04-10T03:23:23.523Z,5.40
2023-04-10T03:25:55.267Z,4.72
2023-04-10T03:28:26.281Z,4.85
2023-04-10T03:30:53.353Z,4.40
2023-04-10T03:33:20.383Z,4.93
2023-04-10T03:35:47.859Z,5.78
2023-04-10T03:38:15.057Z,5.28
2023-04-10T03:40:42.096Z,4.75
2023-04-10T03:43:11.054Z,4.82
2023-04-10T03:45:38.629Z,4.85
2023-04-10T03:48:07.267Z,5.35
2023-04-10T03:50:41.625Z,5.00
2023-04-10T03:53:08.868Z,4.43
2023-04-10T03:55:36.956Z,5.07
2023-04-10T03:58:05.835Z,5.25
2023-04-10T04:00:33.764Z,4.78
2023-04-10T04:03:10.293Z,4.72
2023-04-10T04:06:01.304Z,4.32
2023-04-10T04:08:38.714Z,4.68
2023-04-10T04:11:08.731Z,4.68
2023-04-10T04:13:51.917Z,4.55
2023-04-10T04:16:37.476Z,5.35
2023-04-10T04:19:27.731Z,5.05
2023-04-10T04:22:12.288Z,5.07
2023-04-10T04:24:58.388Z,5.55
2023-04-10T04:28:03.739Z,5.00
2023-04-10T04:30:33.448Z,6.30
2023-04-10T04:33:17.722Z,5.22
2023-04-10T04:36:00.110Z,5.95
2023-04-10T04:38:58.948Z,5.63
2023-04-10T04:41:43.435Z,5.32
2023-04-10T04:44:28.664Z,5.35
2023-04-10T04:47:04.249Z,5.63
2023-04-10T04:49:54.188Z,5.68
2023-04-10T04:52:39.721Z,5.28
2023-04-10T04:55:32.701Z,5.60
2023-04-10T04:58:21.304Z,5.75
2023-04-10T05:00:57.369Z,5.28
2023-04-10T05:03:31.341Z,6.93
2023-04-10T05:06:26.264Z,5.45
2023-04-10T05:09:22.674Z,6.22
2023-04-10T05:12:21.822Z,6.05
2023-04-10T05:14:56.581Z,6.32
2023-04-10T05:17:40.945Z,6.05
2023-04-10T05:20:37.158Z,6.22
2023-04-10T05:23:33.544Z,6.32
2023-04-10T05:26:20.977Z,7.60
2023-04-10T05:28:53.033Z,7.05
2023-04-10T05:31:46.804Z,7.00
2023-04-10T05:34:21.791Z,6.68
2023-04-10T05:37:09.438Z,6.45
2023-04-10T05:39:44.065Z,6.40
2023-04-10T05:42:23.385Z,7.18
2023-04-10T05:45:15.263Z,7.22
2023-04-10T05:48:05.221Z,7.13
2023-04-10T05:50:52.962Z,7.13
2023-04-10T05:53:42.141Z,8.10
2023-04-10T05:56:27.453Z,7.07
2023-04-10T05:59:13.567Z,7.35
2023-04-10T06:01:59.706Z,7.05
2023-04-10T06:04:28.678Z,7.28
2023-04-10T06:06:58.271Z,5.93
2023-04-10T06:09:25.804Z,7.28
2023-04-10T06:11:53.612Z,7.25
2023-04-10T06:14:23.287Z,6.32
2023-04-10T06:16:50.732Z,6.97
2023-04-10T06:19:17.995Z,6.85
2023-04-10T06:21:45.589Z,6.32
2023-04-10T06:24:13.937Z,6.90
2023-04-10T06:26:41.168Z,6.05
2023-04-10T06:29:09.888Z,6.13
2023-04-10T06:31:37.338Z,5.90
2023-04-10T06:34:04.357Z,5.53
2023-04-10T06:36:33.144Z,5.78
2023-04-10T06:39:04.303Z,6.30
2023-04-10T06:41:31.339Z,5.65
2023-04-10T06:44:07.557Z,5.18
2023-04-10T06:46:34.650Z,5.07
2023-04-10T06:49:02.057Z,5.72
2023-04-10T06:51:29.332Z,4.97
2023-04-10T06:53:56.309Z,5.30
2023-04-10T06:56:23.334Z,4.80
2023-04-10T06:58:51.378Z,5.07
2023-04-10T07:01:19.757Z,4.57
2023-04-10T07:03:47.886Z,3.58
2023-04-10T07:06:15.282Z,3.90
2023-04-10T07:08:42.543Z,3.83
2023-04-10T07:11:09.729Z,3.60
2023-04-10T07:13:39.158Z,3.25
2023-04-10T07:16:08.585Z,2.90
2023-04-10T07:18:35.982Z,3.55
2023-04-10T07:21:03.855Z,2.25
2023-04-10T07:23:31.242Z,1.85
2023-04-10T07:25:58.398Z,1.50
2023-04-10T07:28:25.472Z,1.48
2023-04-10T07:30:55.594Z,1.63
2023-04-10T07:33:22.731Z,1.48
2023-04-10T07:35:49.797Z,1.70
2023-04-10T07:38:18.948Z,1.55
2023-04-10T07:40:45.986Z,2.20
2023-04-10T07:43:13.180Z,1.52
2023-04-10T07:45:41.303Z,1.63
2023-04-10T07:48:08.451Z,1.10
2023-04-10T07:50:36.332Z,1.40
2023-04-10T07:53:07.968Z,1.35
2023-04-10T07:55:44.444Z,1.17
2023-04-10T07:58:12.958Z,1.58
2023-04-10T08:00:40.999Z,1.45
2023-04-10T08:03:08.651Z,1.50
2023-04-10T08:05:36.456Z,1.13
2023-04-10T08:08:03.467Z,0.75
2023-04-10T08:10:30.860Z,1.48
2023-04-10T08:12:57.908Z,1.55
2023-04-10T08:15:25.053Z,1.02
2023-04-10T08:17:52.319Z,0.85
2023-04-10T08:20:20.086Z,1.25
2023-04-10T08:22:47.376Z,1.58
2023-04-10T08:25:15.109Z,1.08
2023-04-10T08:27:42.474Z,0.57
2023-04-10T08:30:10.344Z,0.82
2023-04-10T08:32:38.887Z,0.60
2023-04-10T08:35:06.757Z,0.70
2023-04-10T08:37:33.752Z,1.10
2023-04-10T08:40:00.682Z,0.63
2023-04-10T08:42:28.072Z,1.35
2023-04-10T08:44:55.714Z,1.00
2023-04-10T08:47:28.332Z,1.10
2023-04-10T08:49:58.157Z,0.90
2023-04-10T08:52:29.339Z,1.05
2023-04-10T08:55:00.022Z,1.33
2023-04-10T08:57:28.102Z,0.82
2023-04-10T08:59:55.812Z,0.93
2023-04-10T09:02:25.558Z,0.82
2023-04-10T09:04:56.361Z,1.13
2023-04-10T09:07:27.134Z,1.02
2023-04-10T09:09:54.306Z,0.50
2023-04-10T09:12:21.529Z,0.60
2023-04-10T09:14:53.335Z,0.60
2023-04-10T09:17:23.607Z,0.60
2023-04-10T09:19:54.485Z,0.52
2023-04-10T09:22:36.748Z,2.25
2023-04-10T09:25:05.653Z,28.23
2023-04-10T09:27:35.739Z,63.70
2023-04-10T09:30:04.832Z,131.27
2023-04-10T09:32:40.905Z,137.77
2023-04-10T09:35:11.178Z,20.05
2023-04-10T09:37:40.957Z,2.35
2023-04-10T09:40:22.965Z,1.10
2023-04-10T09:42:50.833Z,1.73
2023-04-10T09:45:22.574Z,3.38
2023-04-10T09:48:07.886Z,1.10
2023-04-10T09:50:41.180Z,0.80
2023-04-10T09:53:12.033Z,20.50
2023-04-10T09:55:41.349Z,2.13
2023-04-10T09:58:09.943Z,1.17
2023-04-10T10:00:44.688Z,3.90
2023-04-10T10:03:18.020Z,2.17
2023-04-10T10:05:51.171Z,2.13
2023-04-10T10:08:18.774Z,1.25
2023-04-10T10:10:55.104Z,1.40
2023-04-10T10:13:31.390Z,3.00
2023-04-10T10:16:13.402Z,1.23
2023-04-10T10:19:21.102Z,1.20
2023-04-10T10:21:48.930Z,3.60
2023-04-10T10:24:21.760Z,1.63
2023-04-10T10:26:50.528Z,1.13
2023-04-10T10:29:18.851Z,1.77
2023-04-10T10:31:47.985Z,1.00
2023-04-10T10:34:16.601Z,2.45
2023-04-10T10:36:43.751Z,0.85
2023-04-10T10:39:33.331Z,0.85
2023-04-10T10:42:24.309Z,1.52
2023-04-10T10:45:12.385Z,22.92
2023-04-10T10:47:46.074Z,1.50
2023-04-10T10:50:16.622Z,1.90
2023-04-10T10:52:56.043Z,0.90
2023-04-10T10:55:24.112Z,1.63
2023-04-10T10:58:07.802Z,1.35
2023-04-10T11:00:50.914Z,17.75
2023-04-10T11:03:18.360Z,1.58
2023-04-10T11:05:56.292Z,1.40
2023-04-10T11:08:47.683Z,1.25
2023-04-10T11:11:20.296Z,7.85
2023-04-10T11:13:51.827Z,4.18
2023-04-10T11:16:21.725Z,7.28
2023-04-10T11:19:13.204Z,21.48
2023-04-10T11:22:00.438Z,18.27
2023-04-10T11:24:28.470Z,4.95
2023-04-10T11:26:56.313Z,28.23
2023-04-10T11:29:29.412Z,6.53
2023-04-10T11:32:02.371Z,1.60
2023-04-10T11:34:31.936Z,27.38
2023-04-10T11:37:03.046Z,3.00
2023-04-10T11:39:31.579Z,22.88
2023-04-10T11:41:58.712Z,2.58
2023-04-10T11:44:25.648Z,29.05
2023-04-10T11:46:53.494Z,1.48
2023-04-10T11:49:26.546Z,2.20
2023-04-10T11:51:53.973Z,1.73
2023-04-10T11:54:29.685Z,2.13
2023-04-10T11:57:03.118Z,1.73
2023-04-10T11:59:32.897Z,1.63
2023-04-10T12:02:09.990Z,1.85
2023-04-10T12:04:37.975Z,1.10
2023-04-10T12:07:05.109Z,1.90
2023-04-10T12:09:33.404Z,1.42
2023-04-10T12:12:10.081Z,1.63
2023-04-10T12:14:40.057Z,2.92
2023-04-10T12:17:10.452Z,1.38
2023-04-10T12:19:39.365Z,1.20
2023-04-10T12:22:06.811Z,1.80
2023-04-10T12:25:03.555Z,2.03
2023-04-10T12:27:30.752Z,1.85
2023-04-10T12:29:59.032Z,1.83
2023-04-10T12:32:27.766Z,2.10
2023-04-10T12:35:03.001Z,1.55
2023-04-10T12:37:48.553Z,1.70
2023-04-10T12:40:15.790Z,2.05
2023-04-10T12:42:43.368Z,1.85
2023-04-10T12:45:13.922Z,1.70
2023-04-10T12:47:51.946Z,1.55
2023-04-10T12:50:21.089Z,1.80
2023-04-10T12:53:09.191Z,1.73
2023-04-10T12:55:36.199Z,2.00
2023-04-10T12:58:18.325Z,1.42
2023-04-10T13:00:47.070Z,1.40
2023-04-10T13:03:14.215Z,1.48
2023-04-10T13:05:41.345Z,2.20
2023-04-10T13:08:08.572Z,1.83
2023-04-10T13:10:38.375Z,2.10
2023-04-10T13:13:07.322Z,2.08
2023-04-10T13:15:35.087Z,1.67
2023-04-10T13:18:05.158Z,1.88
2023-04-10T13:20:36.301Z,2.03
2023-04-10T13:23:04.366Z,2.30
2023-04-10T13:25:39.946Z,1.70
2023-04-10T13:28:15.854Z,1.60
2023-04-10T13:30:43.137Z,2.13
2023-04-10T13:33:10.461Z,1.70
2023-04-10T13:35:41.011Z,1.50
2023-04-10T13:38:09.598Z,1.40
2023-04-10T13:40:36.821Z,1.60
2023-04-10T13:43:03.974Z,1.13
2023-04-10T13:45:31.043Z,1.23
2023-04-10T13:47:58.094Z,1.40
2023-04-10T13:50:25.445Z,1.67
2023-04-10T13:52:53.857Z,1.63
2023-04-10T13:55:24.772Z,1.80
2023-04-10T13:57:52.391Z,1.40
2023-04-10T14:00:19.992Z,1.58
2023-04-10T14:02:47.252Z,0.98
2023-04-10T14:05:14.372Z,1.50
2023-04-10T14:07:41.428Z,1.63
2023-04-10T14:10:09.949Z,1.50
2023-04-10T14:12:38.050Z,1.10
2023-04-10T14:15:05.995Z,0.90
2023-04-10T14:17:32.960Z,0.93
2023-04-10T14:20:00.220Z,1.02
2023-04-10T14:22:27.846Z,1.27
2023-04-10T14:25:05.278Z,1.30
2023-04-10T14:27:39.197Z,0.98
2023-04-10T14:30:22.232Z,1.32
2023-04-10T14:32:49.319Z,1.10
2023-04-10T14:35:17.131Z,1.00
2023-04-10T14:37:44.389Z,1.48
2023-04-10T14:40:11.753Z,1.33
2023-04-10T14:42:38.763Z,1.10
2023-04-10T14:45:06.528Z,1.00
2023-04-10T14:47:33.757Z,1.27
2023-04-10T14:50:00.786Z,1.10
2023-04-10T14:52:27.937Z,0.98
2023-04-10T14:54:54.904Z,0.95
2023-04-10T14:57:22.229Z,1.33
2023-04-10T14:59:56.398Z,1.58
2023-04-10T15:02:23.646Z,1.10
2023-04-10T15:04:53.285Z,0.50
2023-04-10T15:07:20.512Z,1.13
2023-04-10T15:09:48.011Z,0.80
2023-04-10T15:12:15.366Z,1.38
2023-04-10T15:14:42.451Z,0.80
2023-04-10T15:17:09.711Z,1.08
2023-04-10T15:19:36.758Z,1.48
2023-04-10T15:22:03.751Z,0.82
2023-04-10T15:24:39.904Z,0.70
2023-04-10T15:27:10.586Z,0.50
2023-04-10T15:29:40.054Z,1.55
2023-04-10T15:32:07.235Z,0.90
2023-04-10T15:34:34.406Z,0.82
2023-04-10T15:37:01.554Z,0.70
2023-04-10T15:39:30.891Z,1.05
2023-04-10T15:42:00.241Z,0.73
2023-04-10T15:44:27.274Z,0.70
2023-04-10T15:46:54.594Z,0.52
2023-04-10T15:49:33.948Z,1.00
2023-04-10T15:52:06.452Z,0.70
2023-04-10T15:54:34.731Z,0.50
2023-04-10T15:57:02.450Z,0.57
2023-04-10T15:59:30.196Z,0.75
2023-04-10T16:01:57.289Z,0.50
2023-04-10T16:04:24.882Z,0.57
2023-04-10T16:06:52.049Z,0.47
2023-04-10T16:09:25.690Z,0.30
2023-04-10T16:11:54.559Z,0.40
2023-04-10T16:14:22.684Z,0.73
2023-04-10T16:16:49.926Z,0.75
2023-04-10T16:19:17.180Z,0.73
2023-04-10T16:21:44.259Z,0.70
2023-04-10T16:24:11.853Z,0.55
2023-04-10T16:26:38.988Z,1.20
2023-04-10T16:29:06.571Z,0.82
2023-04-10T16:31:33.646Z,0.50
2023-04-10T16:34:01.356Z,0.57
2023-04-10T16:36:28.473Z,0.40
2023-04-10T16:38:55.696Z,0.57
2023-04-10T16:41:23.101Z,0.50
2023-04-10T16:43:50.304Z,0.65
2023-04-10T16:46:17.486Z,0.70
2023-04-10T16:48:44.546Z,0.65
2023-04-10T16:51:18.026Z,0.50
2023-04-10T16:53:45.406Z,0.35
2023-04-10T16:56:12.686Z,0.40
2023-04-10T16:58:42.048Z,0.60
2023-04-10T17:01:19.090Z,0.52
2023-04-10T17:03:48.339Z,0.30
2023-04-10T17:06:16.210Z,0.43
2023-04-10T17:08:58.221Z,0.50
2023-04-10T17:11:31.296Z,1.33
2023-04-10T17:13:58.365Z,1.50
2023-04-10T17:16:25.414Z,1.60
2023-04-10T17:18:52.603Z,0.65
2023-04-10T17:21:20.460Z,0.47
2023-04-10T17:23:48.897Z,0.47
2023-04-10T17:26:16.928Z,0.50
2023-04-10T17:28:46.272Z,0.85
2023-04-10T17:31:14.019Z,0.70
2023-04-10T17:33:44.317Z,0.40
2023-04-10T17:36:13.014Z,0.70
2023-04-10T17:38:41.802Z,1.02
2023-04-10T17:41:10.242Z,1.13
2023-04-10T17:43:37.351Z,1.40
2023-04-10T17:46:04.825Z,0.90
2023-04-10T17:48:32.467Z,0.88
2023-04-10T17:50:59.542Z,0.75
2023-04-10T17:53:26.753Z,0.90
2023-04-10T17:55:53.807Z,1.00
2023-04-10T17:58:21.397Z,0.80
2023-04-10T18:01:03.384Z,4.68
2023-04-10T18:03:32.168Z,6.33
2023-04-10T18:06:01.482Z,6.88
2023-04-10T18:08:28.716Z,6.30
2023-04-10T18:10:55.868Z,2.35
2023-04-10T18:13:22.859Z,1.83
2023-04-10T18:15:49.768Z,1.40
2023-04-10T18:18:16.747Z,1.30
2023-04-10T18:20:44.038Z,2.20
2023-04-10T18:23:11.237Z,0.90
2023-04-10T18:25:38.232Z,1.15
2023-04-10T18:28:14.463Z,0.90
2023-04-10T18:30:43.077Z,1.80
2023-04-10T18:33:11.506Z,1.58
2023-04-10T18:35:38.882Z,1.00
2023-04-10T18:38:06.283Z,1.08
2023-04-10T18:40:34.638Z,1.35
2023-04-10T18:43:01.528Z,1.00
2023-04-10T18:45:28.526Z,0.93
2023-04-10T18:47:55.625Z,1.50
2023-04-10T18:50:22.703Z,1.33
2023-04-10T18:52:49.688Z,2.42
2023-04-10T18:55:16.883Z,1.85
2023-04-10T18:57:44.017Z,1.92
2023-04-10T19:00:12.188Z,2.90
2023-04-10T19:02:39.966Z,2.58
2023-04-10T19:05:08.531Z,3.00
2023-04-10T19:07:35.495Z,2.90
2023-04-10T19:10:03.169Z,3.55
2023-04-10T19:12:30.432Z,2.80
2023-04-10T19:14:57.380Z,2.53
2023-04-10T19:17:24.978Z,1.63
2023-04-10T19:19:53.302Z,1.35
2023-04-10T19:22:20.526Z,1.63
2023-04-10T19:24:47.495Z,2.35
2023-04-10T19:27:14.486Z,1.95
2023-04-10T19:29:41.389Z,2.72
2023-04-10T19:32:09.979Z,2.30
2023-04-10T19:34:37.009Z,3.67
2023-04-10T19:37:03.923Z,3.45
2023-04-10T19:39:30.938Z,2.92
2023-04-10T19:41:58.324Z,2.70
2023-04-10T19:44:25.399Z,2.65
2023-04-10T19:46:52.547Z,3.20
2023-04-10T19:49:19.813Z,3.67
2023-04-10T19:51:46.820Z,3.03
2023-04-10T19:54:13.832Z,2.83
2023-04-10T19:56:41.034Z,2.97
2023-04-10T19:59:08.548Z,3.08
2023-04-10T20:01:35.789Z,3.40
2023-04-10T20:04:03.273Z,3.85
2023-04-10T20:06:31.882Z,3.67
2023-04-10T20:08:59.042Z,4.20
2023-04-10T20:11:30.535Z,3.60
2023-04-10T20:13:57.678Z,3.13
2023-04-10T20:16:26.581Z,3.65
2023-04-10T20:18:55.467Z,4.03
2023-04-10T20:21:22.806Z,4.65
2023-04-10T20:23:49.817Z,5.10
2023-04-10T20:26:17.508Z,4.70
2023-04-10T20:28:44.529Z,4.93
2023-04-10T20:31:12.159Z,4.32
2023-04-10T20:33:39.187Z,4.85
2023-04-10T20:36:06.553Z,4.80
2023-04-10T20:38:33.514Z,5.63
2023-04-10T20:41:00.450Z,5.57
2023-04-10T20:43:27.440Z,4.60
2023-04-10T20:45:54.422Z,4.22
2023-04-10T20:48:21.491Z,4.40
2023-04-10T20:50:51.947Z,4.88
2023-04-10T20:53:18.970Z,4.60
2023-04-10T20:55:46.029Z,5.50
2023-04-10T20:58:15.491Z,5.03
2023-04-10T21:00:43.256Z,4.93
2023-04-10T21:03:10.717Z,4.35
2023-04-10T21:05:41.874Z,4.88
2023-04-10T21:08:10.319Z,4.43
2023-04-10T21:10:44.033Z,4.65
2023-04-10T21:15:43.081Z,4.90
2023-04-10T21:18:10.668Z,4.75
2023-04-10T21:20:38.020Z,6.15
2023-04-10T21:23:05.368Z,5.28
2023-04-10T21:25:33.648Z,5.50
2023-04-10T21:28:01.899Z,6.07
2023-04-10T21:30:29.437Z,5.78
2023-04-10T21:32:56.588Z,6.22
2023-04-10T21:35:27.209Z,4.72
2023-04-10T21:37:57.665Z,5.53
2023-04-10T21:40:26.238Z,5.05
2023-04-10T21:42:54.756Z,4.95
2023-04-10T21:45:22.905Z,4.60
2023-04-10T21:47:49.962Z,5.20
2023-04-10T21:50:17.124Z,5.80
2023-04-10T21:52:44.458Z,5.07
2023-04-10T21:55:11.575Z,4.43
2023-04-10T21:57:38.662Z,4.95
2023-04-10T22:00:08.581Z,4.55
2023-04-10T22:02:36.546Z,3.78
2023-04-10T22:05:03.810Z,5.03
2023-04-10T22:07:30.860Z,5.38
2023-04-10T22:09:58.322Z,5.40
2023-04-10T22:12:26.024Z,4.28
2023-04-10T22:14:53.023Z,4.97
2023-04-10T22:17:20.144Z,5.10
2023-04-10T22:19:47.126Z,5.28
2023-04-10T22:22:16.257Z,5.00
2023-04-10T22:24:43.264Z,3.97
2023-04-10T22:27:11.194Z,4.50
2023-04-10T22:29:38.180Z,4.72
2023-04-10T22:32:05.447Z,5.32
2023-04-10T22:34:32.514Z,3.70
2023-04-10T22:36:59.495Z,4.40
2023-04-10T22:39:26.581Z,4.60
2023-04-10T22:41:53.589Z,4.97
2023-04-10T22:44:20.540Z,4.43
2023-04-10T22:46:48.412Z,4.68
2023-04-10T22:49:18.312Z,5.38
2023-04-10T22:51:48.438Z,4.50
2023-04-10T22:54:16.183Z,4.63
2023-04-10T22:56:44.261Z,4.07
2023-04-10T22:59:11.694Z,4.95
2023-04-10T23:01:39.121Z,5.20
2023-04-10T23:04:06.244Z,5.55
2023-04-10T23:06:33.329Z,5.28
2023-04-10T23:09:00.569Z,5.25
2023-04-10T23:11:27.536Z,5.72
2023-04-10T23:13:54.547Z,4.55
2023-04-10T23:16:21.571Z,5.80
2023-04-10T23:18:50.490Z,4.57
2023-04-10T23:21:17.679Z,4.55
2023-04-10T23:23:44.791Z,5.28
2023-04-10T23:26:11.842Z,5.43
2023-04-10T23:28:39.097Z,5.65
2023-04-10T23:31:06.619Z,6.03
2023-04-10T23:33:33.666Z,6.85
2023-04-10T23:36:00.786Z,6.00
2023-04-10T23:38:27.814Z,6.32
2023-04-10T23:40:54.854Z,6.18
2023-04-10T23:43:21.959Z,4.97
2023-04-10T23:45:48.993Z,6.20
2023-04-10T23:48:16.280Z,5.80
2023-04-10T23:50:43.280Z,5.07
2023-04-10T23:53:10.862Z,5.53
2023-04-10T23:55:43.017Z,6.50
2023-04-10T23:58:10.652Z,6.05
